createdAt,value
2022-09-09T00:00:21.171Z,1.70
2022-09-09T00:03:27.871Z,1.63
2022-09-09T00:06:45.194Z,1.50
2022-09-09T00:09:23.416Z,1.90
2022-09-09T00:12:46.239Z,2.50
2022-09-09T00:15:26.814Z,2.40
2022-09-09T00:18:59.702Z,2.53
2022-09-09T00:21:40.324Z,2.00
2022-09-09T00:24:36.491Z,3.37
2022-09-09T00:27:30.245Z,2.80
2022-09-09T00:30:24.853Z,3.10
2022-09-09T00:33:13.693Z,3.00
2022-09-09T00:35:54.426Z,3.10
2022-09-09T00:38:44.960Z,2.37
2022-09-09T00:41:59.184Z,3.30
2022-09-09T00:44:39.224Z,2.83
2022-09-09T00:47:50.852Z,3.07
2022-09-09T00:51:04.817Z,2.70
2022-09-09T00:54:44.246Z,2.77
2022-09-09T00:57:34.497Z,2.60
2022-09-09T01:00:29.909Z,2.20
2022-09-09T01:03:46.613Z,3.97
2022-09-09T01:06:39.868Z,2.13
2022-09-09T01:09:47.185Z,3.40
2022-09-09T01:12:53.229Z,2.83
2022-09-09T01:15:31.767Z,2.60
2022-09-09T01:18:18.564Z,2.43
2022-09-09T01:21:10.727Z,2.43
2022-09-09T01:24:39.607Z,2.47
2022-09-09T01:27:19.354Z,3.00
2022-09-09T01:29:48.180Z,4.33
2022-09-09T01:32:48.193Z,3.97
2022-09-09T01:36:04.853Z,4.50
2022-09-09T01:38:40.606Z,6.03
2022-09-09T01:41:08.326Z,4.20
2022-09-09T01:43:45.727Z,3.80
2022-09-09T01:46:16.213Z,3.53
2022-09-09T01:48:46.736Z,3.00
2022-09-09T01:51:14.530Z,3.23
2022-09-09T01:53:47.017Z,3.43
2022-09-09T01:56:50.536Z,2.90
2022-09-09T02:00:02.651Z,3.60
2022-09-09T02:03:34.813Z,3.50
2022-09-09T02:06:39.916Z,2.90
2022-09-09T02:09:27.252Z,3.90
2022-09-09T02:12:18.419Z,3.03
2022-09-09T02:15:15.357Z,3.17
2022-09-09T02:17:54.248Z,2.90
2022-09-09T02:20:30.555Z,3.77
2022-09-09T02:23:03.950Z,3.23
2022-09-09T02:25:35.427Z,3.60
2022-09-09T02:28:16.953Z,3.07
2022-09-09T02:30:49.056Z,3.57
2022-09-09T02:33:18.545Z,3.20
2022-09-09T02:35:57.535Z,3.70
2022-09-09T02:38:37.474Z,2.87
2022-09-09T02:41:11.260Z,3.67
2022-09-09T02:43:40.071Z,3.83
2022-09-09T02:46:48.950Z,3.10
2022-09-09T02:49:31.950Z,3.23
2022-09-09T02:52:16.487Z,3.20
2022-09-09T02:54:45.946Z,4.00
2022-09-09T02:57:31.134Z,2.97
2022-09-09T03:00:01.405Z,3.10
2022-09-09T03:02:31.448Z,2.90
2022-09-09T03:05:04.932Z,3.10
2022-09-09T03:07:32.678Z,3.10
2022-09-09T03:10:00.516Z,2.60
2022-09-09T03:12:29.124Z,3.60
2022-09-09T03:14:56.726Z,3.73
2022-09-09T03:17:25.795Z,3.37
2022-09-09T03:19:56.139Z,3.77
2022-09-09T03:22:23.879Z,3.47
2022-09-09T03:24:51.858Z,3.50
2022-09-09T03:27:20.598Z,3.00
2022-09-09T03:29:52.121Z,3.40
2022-09-09T03:32:23.726Z,2.90
2022-09-09T03:34:51.700Z,2.60
2022-09-09T03:37:21.255Z,3.20
2022-09-09T03:39:50.800Z,4.60
2022-09-09T03:42:20.279Z,3.50
2022-09-09T03:44:52.410Z,3.80
2022-09-09T03:47:23.700Z,3.40
2022-09-09T03:49:55.355Z,3.30
2022-09-09T03:52:26.073Z,3.20
2022-09-09T03:54:56.100Z,3.40
2022-09-09T03:57:23.878Z,3.60
2022-09-09T03:59:51.598Z,3.50
2022-09-09T04:02:19.944Z,3.73
2022-09-09T04:04:47.990Z,5.80
2022-09-09T04:07:16.996Z,4.07
2022-09-09T04:09:45.481Z,3.60
2022-09-09T04:12:15.385Z,3.13
2022-09-09T04:14:43.315Z,4.10
2022-09-09T04:17:12.164Z,3.50
2022-09-09T04:19:39.994Z,3.40
2022-09-09T04:22:07.698Z,3.80
2022-09-09T04:24:36.305Z,4.37
2022-09-09T04:27:04.467Z,4.13
2022-09-09T04:29:35.446Z,3.63
2022-09-09T04:32:03.583Z,4.90
2022-09-09T04:34:32.364Z,4.27
2022-09-09T04:37:00.686Z,3.80
2022-09-09T04:39:28.630Z,3.53
2022-09-09T04:41:57.600Z,4.10
2022-09-09T04:44:25.537Z,3.70
2022-09-09T04:46:53.322Z,8.27
2022-09-09T04:49:21.423Z,21.50
2022-09-09T04:51:51.146Z,30.17
2022-09-09T04:54:19.365Z,41.40
2022-09-09T04:56:47.965Z,43.53
2022-09-09T04:59:15.594Z,44.17
2022-09-09T05:01:47.818Z,46.87
2022-09-09T05:04:18.222Z,46.80
2022-09-09T05:06:47.066Z,41.87
2022-09-09T05:09:15.097Z,40.53
2022-09-09T05:11:42.966Z,43.97
2022-09-09T05:14:18.312Z,40.03
2022-09-09T05:16:50.728Z,43.67
2022-09-09T05:19:20.857Z,39.80
2022-09-09T05:21:51.132Z,38.60
2022-09-09T05:24:24.455Z,40.37
2022-09-09T05:26:55.214Z,31.50
2022-09-09T05:29:22.890Z,30.30
2022-09-09T05:31:50.799Z,23.50
2022-09-09T05:34:21.902Z,22.53
2022-09-09T05:36:51.100Z,14.50
2022-09-09T05:39:19.366Z,14.63
2022-09-09T05:41:47.219Z,11.73
2022-09-09T05:44:14.863Z,11.80
2022-09-09T05:46:42.619Z,11.13
2022-09-09T05:49:11.343Z,10.00
2022-09-09T05:51:41.337Z,7.90
2022-09-09T05:54:16.041Z,8.80
2022-09-09T05:56:51.118Z,8.33
2022-09-09T05:59:19.809Z,9.03
2022-09-09T06:01:48.188Z,8.57
2022-09-09T06:04:23.617Z,6.50
2022-09-09T06:06:51.580Z,7.43
2022-09-09T06:09:22.113Z,6.20
2022-09-09T06:11:50.893Z,6.87
2022-09-09T06:14:19.178Z,6.27
2022-09-09T06:16:49.911Z,5.10
2022-09-09T06:19:28.783Z,5.17
2022-09-09T06:21:59.944Z,5.07
2022-09-09T06:24:31.333Z,4.73
2022-09-09T06:27:00.461Z,4.10
2022-09-09T06:29:32.456Z,4.10
2022-09-09T06:32:00.299Z,4.10
2022-09-09T06:34:29.391Z,4.80
2022-09-09T06:36:59.514Z,3.40
2022-09-09T06:39:32.825Z,2.70
2022-09-09T06:42:00.861Z,3.53
2022-09-09T06:44:47.014Z,2.97
2022-09-09T06:47:23.624Z,2.90
2022-09-09T06:49:52.489Z,2.67
2022-09-09T06:52:20.436Z,2.77
2022-09-09T06:54:48.690Z,3.60
2022-09-09T07:00:10.969Z,3.20
2022-09-09T07:02:40.257Z,2.30
2022-09-09T07:05:10.544Z,2.47
2022-09-09T07:07:39.430Z,2.30
2022-09-09T07:10:08.673Z,2.90
2022-09-09T07:12:38.719Z,3.30
2022-09-09T07:15:11.082Z,2.80
2022-09-09T07:17:42.045Z,2.47
2022-09-09T07:20:10.266Z,2.87
2022-09-09T07:22:37.939Z,2.97
2022-09-09T07:25:07.114Z,2.20
2022-09-09T07:27:35.932Z,2.60
2022-09-09T07:30:04.794Z,2.43
2022-09-09T07:32:34.363Z,2.60
2022-09-09T07:35:02.872Z,2.47
2022-09-09T07:37:30.419Z,2.77
2022-09-09T07:39:59.872Z,2.60
2022-09-09T07:42:27.645Z,2.63
2022-09-09T07:44:56.129Z,2.20
2022-09-09T07:47:25.855Z,2.93
2022-09-09T07:49:53.493Z,1.87
2022-09-09T07:52:26.745Z,1.97
2022-09-09T07:54:58.120Z,2.07
2022-09-09T07:57:26.074Z,1.80
2022-09-09T07:59:55.510Z,1.43
2022-09-09T08:02:27.036Z,1.70
2022-09-09T08:04:54.696Z,2.07
2022-09-09T08:07:23.455Z,1.70
2022-09-09T08:09:56.747Z,1.57
2022-09-09T08:12:29.268Z,1.90
2022-09-09T08:14:58.026Z,2.53
2022-09-09T08:17:29.513Z,1.83
2022-09-09T08:19:58.615Z,1.60
2022-09-09T08:22:30.284Z,1.80
2022-09-09T08:24:58.456Z,2.20
2022-09-09T08:27:26.583Z,1.60
2022-09-09T08:29:57.583Z,2.33
2022-09-09T08:32:25.560Z,1.77
2022-09-09T08:34:54.680Z,2.20
2022-09-09T08:37:25.263Z,1.93
2022-09-09T08:39:54.273Z,2.13
2022-09-09T08:42:45.046Z,1.47
2022-09-09T08:46:09.995Z,1.90
2022-09-09T08:49:26.900Z,1.80
2022-09-09T08:51:58.506Z,2.23
2022-09-09T08:54:51.624Z,1.73
2022-09-09T08:57:33.436Z,2.10
2022-09-09T09:00:01.182Z,1.30
2022-09-09T09:03:18.650Z,1.60
2022-09-09T09:06:25.555Z,1.73
2022-09-09T09:09:18.087Z,1.20
2022-09-09T09:12:02.174Z,1.20
2022-09-09T09:14:40.188Z,1.60
2022-09-09T09:17:32.407Z,1.90
2022-09-09T09:20:01.564Z,1.30
2022-09-09T09:22:56.781Z,1.30
2022-09-09T09:25:45.393Z,1.10
2022-09-09T09:28:26.120Z,1.60
2022-09-09T09:31:12.737Z,1.67
2022-09-09T09:33:51.574Z,1.40
2022-09-09T09:36:42.607Z,1.60
2022-09-09T09:42:23.200Z,1.13
2022-09-09T09:44:53.901Z,1.27
2022-09-09T09:47:24.798Z,1.50
2022-09-09T09:50:21.843Z,1.70
2022-09-09T09:53:21.860Z,1.07
2022-09-09T09:56:14.817Z,1.70
2022-09-09T09:58:45.881Z,2.00
2022-09-09T10:01:35.134Z,1.63
2022-09-09T10:04:25.003Z,1.40
2022-09-09T10:06:56.502Z,1.43
2022-09-09T10:09:33.889Z,1.57
2022-09-09T10:13:00.966Z,1.20
2022-09-09T10:16:18.977Z,1.80
2022-09-09T10:19:08.473Z,2.03
2022-09-09T10:22:13.181Z,1.90
2022-09-09T10:25:49.012Z,1.90
2022-09-09T10:29:34.743Z,3.00
2022-09-09T10:32:47.928Z,2.00
2022-09-09T10:36:06.525Z,1.73
2022-09-09T10:38:53.529Z,1.47
2022-09-09T10:42:08.249Z,1.27
2022-09-09T10:45:24.421Z,1.17
2022-09-09T10:48:34.685Z,1.00
2022-09-09T10:52:00.137Z,1.57
2022-09-09T10:55:19.204Z,1.10
2022-09-09T10:57:58.593Z,1.10
2022-09-09T11:00:53.743Z,1.77
2022-09-09T11:03:41.041Z,0.93
2022-09-09T11:06:24.261Z,1.10
2022-09-09T11:08:56.972Z,1.10
2022-09-09T11:12:05.328Z,1.90
2022-09-09T11:14:55.614Z,1.30
2022-09-09T11:17:51.912Z,1.50
2022-09-09T11:20:19.736Z,1.63
2022-09-09T11:23:10.527Z,0.80
2022-09-09T11:25:58.149Z,1.60
2022-09-09T11:29:45.237Z,1.20
2022-09-09T11:32:53.169Z,1.30
2022-09-09T11:36:04.531Z,1.00
2022-09-09T11:38:53.424Z,1.20
2022-09-09T11:41:22.984Z,1.57
2022-09-09T11:43:55.159Z,1.20
2022-09-09T11:46:39.347Z,2.40
2022-09-09T11:49:40.352Z,1.23
2022-09-09T11:52:40.029Z,1.77
2022-09-09T11:55:37.896Z,1.20
2022-09-09T11:58:12.366Z,2.00
2022-09-09T12:00:49.168Z,1.20
2022-09-09T12:03:53.925Z,1.30
2022-09-09T12:07:25.553Z,1.53
2022-09-09T12:10:39.797Z,1.10
2022-09-09T12:13:21.576Z,1.33
2022-09-09T12:16:00.484Z,1.20
2022-09-09T12:18:40.611Z,1.40
2022-09-09T12:21:34.498Z,1.53
2022-09-09T12:24:37.665Z,1.63
2022-09-09T12:27:35.037Z,1.17
2022-09-09T12:30:17.542Z,1.27
2022-09-09T12:32:47.906Z,1.33
2022-09-09T12:35:31.763Z,1.20
2022-09-09T12:38:08.215Z,1.10
2022-09-09T12:40:36.728Z,1.30
2022-09-09T12:43:25.070Z,1.20
2022-09-09T12:46:09.743Z,1.00
2022-09-09T12:48:46.646Z,1.07
2022-09-09T12:51:32.653Z,1.03
2022-09-09T12:54:02.010Z,1.23
2022-09-09T12:56:34.245Z,1.37
2022-09-09T12:59:03.138Z,1.73
2022-09-09T13:01:34.807Z,0.87
2022-09-09T13:04:03.637Z,1.53
2022-09-09T13:06:35.283Z,1.70
2022-09-09T13:09:05.449Z,2.27
2022-09-09T13:11:44.490Z,1.37
2022-09-09T13:14:38.343Z,1.53
2022-09-09T13:17:22.435Z,1.60
2022-09-09T13:19:54.231Z,1.87
2022-09-09T13:22:34.155Z,1.90
2022-09-09T13:25:29.978Z,1.63
2022-09-09T13:28:20.968Z,1.80
2022-09-09T13:31:09.050Z,2.00
2022-09-09T13:33:41.557Z,1.80
2022-09-09T13:36:15.479Z,1.70
2022-09-09T13:39:03.756Z,1.50
2022-09-09T13:41:38.021Z,1.30
2022-09-09T13:44:07.708Z,1.50
2022-09-09T13:46:42.622Z,1.30
2022-09-09T13:49:10.273Z,1.20
2022-09-09T13:51:49.030Z,1.60
2022-09-09T13:54:21.344Z,1.20
2022-09-09T13:56:50.816Z,1.60
2022-09-09T13:59:21.412Z,1.63
2022-09-09T14:01:50.311Z,1.70
2022-09-09T14:04:18.599Z,1.73
2022-09-09T14:06:46.534Z,1.70
2022-09-09T14:09:19.150Z,1.87
2022-09-09T14:11:48.128Z,1.80
2022-09-09T14:14:17.516Z,1.83
2022-09-09T14:16:45.694Z,1.77
2022-09-09T14:19:13.652Z,1.77
2022-09-09T14:21:41.367Z,1.47
2022-09-09T14:24:09.541Z,2.37
2022-09-09T14:26:37.788Z,1.73
2022-09-09T14:29:05.488Z,1.53
2022-09-09T14:31:33.737Z,2.13
2022-09-09T14:34:01.401Z,1.77
2022-09-09T14:36:28.952Z,1.80
2022-09-09T14:38:56.605Z,1.83
2022-09-09T14:41:24.593Z,1.50
2022-09-09T14:43:53.040Z,1.60
2022-09-09T14:46:22.709Z,1.60
2022-09-09T14:48:50.787Z,1.87
2022-09-09T14:51:29.306Z,1.70
2022-09-09T14:54:00.580Z,1.50
2022-09-09T14:56:37.020Z,1.80
2022-09-09T14:59:05.564Z,2.53
2022-09-09T15:01:33.682Z,1.67
2022-09-09T15:04:06.349Z,2.13
2022-09-09T15:06:40.149Z,2.00
2022-09-09T15:09:07.992Z,2.97
2022-09-09T15:11:39.231Z,2.47
2022-09-09T15:14:10.619Z,1.77
2022-09-09T15:16:41.148Z,1.70
2022-09-09T15:19:10.322Z,2.07
2022-09-09T15:21:39.498Z,1.30
2022-09-09T15:24:09.342Z,1.00
2022-09-09T15:26:39.685Z,0.90
2022-09-09T15:29:09.579Z,1.10
2022-09-09T15:31:38.300Z,1.30
2022-09-09T15:34:10.393Z,1.17
2022-09-09T15:36:43.869Z,1.47
2022-09-09T15:39:17.855Z,1.23
2022-09-09T15:41:49.679Z,1.20
2022-09-09T15:44:20.086Z,1.60
2022-09-09T15:46:57.640Z,1.00
2022-09-09T15:49:27.618Z,1.40
2022-09-09T15:52:04.653Z,1.53
2022-09-09T15:54:40.146Z,1.80
2022-09-09T15:57:13.570Z,1.77
2022-09-09T15:59:41.527Z,1.97
2022-09-09T16:02:11.221Z,2.23
2022-09-09T16:04:39.008Z,2.50
2022-09-09T16:07:07.812Z,2.30
2022-09-09T16:09:38.171Z,1.80
2022-09-09T16:12:11.038Z,1.90
2022-09-09T16:14:39.929Z,1.90
2022-09-09T16:17:08.335Z,2.37
2022-09-09T16:19:36.329Z,1.87
2022-09-09T16:22:07.538Z,1.67
2022-09-09T16:24:35.436Z,1.70
2022-09-09T16:27:03.179Z,1.53
2022-09-09T16:29:30.876Z,1.67
2022-09-09T16:32:03.300Z,1.50
2022-09-09T16:34:31.944Z,1.00
2022-09-09T16:36:59.561Z,1.63
2022-09-09T16:39:27.182Z,1.80
2022-09-09T16:41:54.877Z,2.60
2022-09-09T16:44:23.334Z,1.50
2022-09-09T16:46:58.060Z,1.40
2022-09-09T16:49:29.505Z,1.40
2022-09-09T16:52:00.756Z,1.17
2022-09-09T16:54:29.979Z,1.77
2022-09-09T16:56:58.646Z,1.80
2022-09-09T16:59:27.572Z,1.30
2022-09-09T17:01:55.690Z,1.40
2022-09-09T17:04:29.039Z,1.20
2022-09-09T17:06:58.621Z,1.53
2022-09-09T17:09:32.324Z,1.40
2022-09-09T17:12:01.061Z,1.97
2022-09-09T17:14:28.846Z,1.77
2022-09-09T17:17:05.241Z,1.70
2022-09-09T17:19:41.581Z,1.47
2022-09-09T17:22:17.790Z,1.80
2022-09-09T17:24:46.779Z,2.07
2022-09-09T17:27:15.221Z,1.73
2022-09-09T17:29:44.391Z,2.00
2022-09-09T17:32:12.042Z,2.53
2022-09-09T17:34:40.051Z,2.00
2022-09-09T17:37:07.860Z,2.00
2022-09-09T17:39:35.619Z,2.30
2022-09-09T17:42:04.310Z,2.00
2022-09-09T17:44:33.454Z,2.60
2022-09-09T17:47:01.408Z,2.50
2022-09-09T17:49:29.059Z,1.90
2022-09-09T17:51:57.195Z,2.30
2022-09-09T17:54:24.937Z,3.20
2022-09-09T17:56:53.551Z,2.93
2022-09-09T17:59:21.563Z,2.40
2022-09-09T18:01:51.267Z,3.17
2022-09-09T18:04:21.016Z,2.57
2022-09-09T18:06:54.279Z,2.40
2022-09-09T18:09:27.015Z,2.40
2022-09-09T18:11:59.228Z,2.93
2022-09-09T18:14:34.020Z,2.43
2022-09-09T18:17:04.350Z,2.47
2022-09-09T18:19:34.569Z,2.50
2022-09-09T18:22:06.973Z,3.10
2022-09-09T18:24:36.436Z,2.23
2022-09-09T18:27:04.579Z,2.27
2022-09-09T18:29:32.335Z,2.80
2022-09-09T18:32:00.205Z,2.43
2022-09-09T18:34:30.127Z,2.60
2022-09-09T18:36:59.764Z,3.33
2022-09-09T18:39:30.298Z,2.50
2022-09-09T18:42:02.643Z,3.10
2022-09-09T18:44:35.725Z,3.33
2022-09-09T18:47:04.229Z,3.43
2022-09-09T18:49:33.386Z,2.77
2022-09-09T18:52:03.046Z,3.10
2022-09-09T18:54:33.499Z,2.00
2022-09-09T18:57:01.953Z,2.30
2022-09-09T18:59:31.257Z,2.40
2022-09-09T19:01:59.110Z,2.67
2022-09-09T19:04:27.650Z,2.70
2022-09-09T19:06:58.954Z,2.73
2022-09-09T19:09:34.106Z,2.70
2022-09-09T19:12:02.977Z,2.97
2022-09-09T19:14:31.073Z,3.40
2022-09-09T19:16:59.421Z,3.23
2022-09-09T19:19:33.045Z,3.80
2022-09-09T19:22:03.145Z,2.20
2022-09-09T19:24:34.682Z,3.50
2022-09-09T19:27:07.054Z,2.50
2022-09-09T19:29:42.427Z,2.10
2022-09-09T19:34:58.738Z,2.20
2022-09-09T19:37:26.441Z,1.90
2022-09-09T19:39:54.042Z,2.27
2022-09-09T19:42:21.828Z,2.07
2022-09-09T19:44:50.963Z,2.10
2022-09-09T19:47:19.577Z,2.53
2022-09-09T19:49:47.974Z,3.00
2022-09-09T19:52:18.279Z,2.93
2022-09-09T19:54:47.131Z,2.50
2022-09-09T19:57:14.772Z,2.40
2022-09-09T19:59:42.623Z,2.50
2022-09-09T20:02:15.732Z,2.67
2022-09-09T20:04:44.662Z,2.63
2022-09-09T20:07:12.543Z,2.73
2022-09-09T20:09:40.099Z,3.73
2022-09-09T20:12:10.047Z,2.90
2022-09-09T20:14:39.829Z,3.17
2022-09-09T20:17:10.191Z,3.50
2022-09-09T20:19:39.959Z,2.57
2022-09-09T20:22:07.808Z,3.10
2022-09-09T20:24:37.082Z,2.10
2022-09-09T20:27:07.103Z,3.10
2022-09-09T20:29:34.805Z,2.93
2022-09-09T20:32:02.787Z,2.90
2022-09-09T20:34:30.442Z,3.10
2022-09-09T20:36:59.390Z,2.43
2022-09-09T20:39:27.932Z,3.97
2022-09-09T20:41:55.545Z,3.20
2022-09-09T20:44:24.811Z,2.97
2022-09-09T20:47:00.208Z,2.50
2022-09-09T20:49:29.453Z,2.93
2022-09-09T20:51:57.355Z,2.60
2022-09-09T20:54:30.696Z,2.70
2022-09-09T20:57:00.463Z,2.77
2022-09-09T20:59:34.829Z,3.40
2022-09-09T21:02:03.413Z,3.80
2022-09-09T21:04:31.597Z,3.23
2022-09-09T21:06:59.280Z,3.10
2022-09-09T21:09:26.982Z,3.53
2022-09-09T21:11:54.689Z,3.10
2022-09-09T21:14:22.781Z,3.50
2022-09-09T21:16:50.896Z,3.30
2022-09-09T21:19:18.789Z,3.40
2022-09-09T21:21:47.990Z,2.73
2022-09-09T21:24:16.344Z,3.13
2022-09-09T21:26:44.042Z,2.87
2022-09-09T21:29:13.205Z,3.20
2022-09-09T21:31:41.067Z,3.07
2022-09-09T21:34:09.877Z,3.30
2022-09-09T21:36:37.575Z,3.33
2022-09-09T21:39:05.431Z,2.83
2022-09-09T21:41:33.034Z,2.13
2022-09-09T21:44:01.259Z,2.53
2022-09-09T21:46:29.434Z,2.80
2022-09-09T21:48:58.884Z,2.00
2022-09-09T21:51:26.460Z,1.83
2022-09-09T21:53:58.933Z,2.23
2022-09-09T21:56:26.964Z,2.57
2022-09-09T21:59:09.719Z,2.30
2022-09-09T22:01:37.430Z,2.03
2022-09-09T22:04:05.051Z,2.60
2022-09-09T22:06:33.259Z,2.63
2022-09-09T22:09:02.890Z,2.30
2022-09-09T22:11:31.540Z,2.43
2022-09-09T22:13:59.198Z,2.30
2022-09-09T22:16:26.876Z,2.10
2022-09-09T22:19:00.476Z,3.00
2022-09-09T22:21:33.112Z,2.53
2022-09-09T22:24:06.159Z,2.43
2022-09-09T22:26:38.452Z,3.50
2022-09-09T22:29:07.443Z,2.50
2022-09-09T22:31:36.659Z,2.50
2022-09-09T22:34:06.068Z,2.63
2022-09-09T22:36:34.360Z,3.20
2022-09-09T22:39:02.070Z,2.90
2022-09-09T22:41:30.133Z,2.87
2022-09-09T22:43:59.138Z,2.87
2022-09-09T22:46:26.954Z,2.80
2022-09-09T22:48:54.575Z,2.40
2022-09-09T22:51:22.845Z,2.73
2022-09-09T22:53:50.476Z,2.70
2022-09-09T22:56:20.497Z,2.60
2022-09-09T22:58:56.451Z,3.20
2022-09-09T23:01:27.436Z,2.87
2022-09-09T23:04:02.890Z,2.20
2022-09-09T23:06:31.838Z,2.33
2022-09-09T23:09:03.810Z,2.87
2022-09-09T23:11:37.099Z,2.70
2022-09-09T23:14:11.568Z,2.60
2022-09-09T23:16:45.458Z,3.17
2022-09-09T23:19:17.813Z,2.80
2022-09-09T23:21:47.191Z,2.87
2022-09-09T23:24:17.743Z,3.83
2022-09-09T23:26:46.563Z,3.17
2022-09-09T23:29:15.681Z,2.97
2022-09-09T23:31:46.726Z,3.60
2022-09-09T23:34:15.079Z,2.70
2022-09-09T23:36:43.002Z,3.40
2022-09-09T23:39:13.372Z,3.70
2022-09-09T23:41:41.388Z,3.60
2022-09-09T23:44:10.170Z,3.13
2022-09-09T23:46:37.807Z,2.90
2022-09-09T23:49:08.376Z,3.40
2022-09-09T23:51:37.895Z,3.73
2022-09-09T23:54:06.785Z,3.10
2022-09-09T23:56:42.548Z,3.47
2022-09-09T23:59:10.946Z,2.47
